createdAt,value
2022-10-02T00:01:18.185Z,2.40
2022-10-02T00:03:47.143Z,2.60
2022-10-02T00:06:21.181Z,2.20
2022-10-02T00:08:51.084Z,2.60
2022-10-02T00:11:24.196Z,2.30
2022-10-02T00:13:57.273Z,2.50
2022-10-02T00:16:29.724Z,2.87
2022-10-02T00:18:57.560Z,2.73
2022-10-02T00:21:41.883Z,2.60
2022-10-02T00:24:14.607Z,3.80
2022-10-02T00:26:53.439Z,2.63
2022-10-02T00:29:32.082Z,2.63
2022-10-02T00:32:13.024Z,2.40
2022-10-02T00:34:53.915Z,2.37
2022-10-02T00:37:31.213Z,2.47
2022-10-02T00:40:08.084Z,2.23
2022-10-02T00:43:01.667Z,2.33
2022-10-02T00:45:50.487Z,2.30
2022-10-02T00:48:31.753Z,2.50
2022-10-02T00:51:13.009Z,2.67
2022-10-02T00:53:54.289Z,2.73
2022-10-02T00:56:29.821Z,2.33
2022-10-02T00:59:13.979Z,1.97
2022-10-02T01:01:45.637Z,2.80
2022-10-02T01:04:19.588Z,3.07
2022-10-02T01:06:47.453Z,2.50
2022-10-02T01:09:16.079Z,2.23
2022-10-02T01:11:44.990Z,2.63
2022-10-02T01:14:15.315Z,2.40
2022-10-02T01:16:44.073Z,2.73
2022-10-02T01:19:24.022Z,2.23
2022-10-02T01:21:57.901Z,2.67
2022-10-02T01:24:31.039Z,2.67
2022-10-02T01:27:00.253Z,2.23
2022-10-02T01:29:28.038Z,2.40
2022-10-02T01:31:56.848Z,2.40
2022-10-02T01:34:25.096Z,2.70
2022-10-02T01:36:53.482Z,2.33
2022-10-02T01:39:22.231Z,2.40
2022-10-02T01:41:50.030Z,2.93
2022-10-02T01:44:19.231Z,2.60
2022-10-02T01:46:57.129Z,2.50
2022-10-02T01:49:50.114Z,3.00
2022-10-02T01:52:25.830Z,2.70
2022-10-02T01:55:18.580Z,2.77
2022-10-02T01:57:56.541Z,2.20
2022-10-02T02:00:26.763Z,2.30
2022-10-02T02:03:03.938Z,2.73
2022-10-02T02:05:44.097Z,2.67
2022-10-02T02:08:18.303Z,2.33
2022-10-02T02:10:53.733Z,2.93
2022-10-02T02:13:29.384Z,2.90
2022-10-02T02:16:04.812Z,2.90
2022-10-02T02:18:36.654Z,2.67
2022-10-02T02:21:09.609Z,2.77
2022-10-02T02:23:40.115Z,2.80
2022-10-02T02:26:12.468Z,3.13
2022-10-02T02:28:44.942Z,2.70
2022-10-02T02:31:20.146Z,2.50
2022-10-02T02:33:51.511Z,2.30
2022-10-02T02:36:22.728Z,2.70
2022-10-02T02:38:54.284Z,2.67
2022-10-02T02:41:27.368Z,2.73
2022-10-02T02:44:00.501Z,2.70
2022-10-02T02:46:35.090Z,2.63
2022-10-02T02:49:09.252Z,2.67
2022-10-02T02:51:41.974Z,2.87
2022-10-02T02:54:17.867Z,2.67
2022-10-02T02:56:48.570Z,2.87
2022-10-02T02:59:16.504Z,2.80
2022-10-02T03:01:45.658Z,2.80
2022-10-02T03:04:14.885Z,2.93
2022-10-02T03:06:45.407Z,2.63
2022-10-02T03:09:15.707Z,2.53
2022-10-02T03:11:52.536Z,2.60
2022-10-02T03:14:50.412Z,2.97
2022-10-02T03:17:32.023Z,2.63
2022-10-02T03:20:07.047Z,2.47
2022-10-02T03:22:42.522Z,3.03
2022-10-02T03:25:15.226Z,3.03
2022-10-02T03:27:46.376Z,2.23
2022-10-02T03:30:20.504Z,2.43
2022-10-02T03:32:53.622Z,2.40
2022-10-02T03:35:23.756Z,2.63
2022-10-02T03:37:54.392Z,2.87
2022-10-02T03:40:24.360Z,2.50
2022-10-02T03:42:52.976Z,2.80
2022-10-02T03:45:46.265Z,2.97
2022-10-02T03:48:10.484Z,2.70
2022-10-02T03:50:38.198Z,2.60
2022-10-02T03:53:13.951Z,2.40
2022-10-02T03:55:44.874Z,2.90
2022-10-02T03:58:15.529Z,2.97
2022-10-02T04:00:51.884Z,2.80
2022-10-02T04:03:25.296Z,2.57
2022-10-02T04:05:57.227Z,2.70
2022-10-02T04:08:29.577Z,2.63
2022-10-02T04:11:04.682Z,2.53
2022-10-02T04:13:37.542Z,3.17
2022-10-02T04:16:10.709Z,2.67
2022-10-02T04:18:46.279Z,3.17
2022-10-02T04:21:21.528Z,3.00
2022-10-02T04:23:54.117Z,2.90
2022-10-02T04:26:26.760Z,2.67
2022-10-02T04:29:00.256Z,2.80
2022-10-02T04:31:29.333Z,2.63
2022-10-02T04:34:02.629Z,3.03
2022-10-02T04:36:46.097Z,3.40
2022-10-02T04:39:33.577Z,3.50
2022-10-02T04:42:22.163Z,3.33
2022-10-02T04:45:10.159Z,4.00
2022-10-02T04:47:59.677Z,3.80
2022-10-02T04:50:39.301Z,3.20
2022-10-02T04:53:17.971Z,2.80
2022-10-02T04:55:53.706Z,2.77
2022-10-02T04:58:34.130Z,2.60
2022-10-02T05:01:11.214Z,2.67
2022-10-02T05:04:04.136Z,2.93
2022-10-02T05:06:50.785Z,3.40
2022-10-02T05:09:28.577Z,3.07
2022-10-02T05:12:19.286Z,2.60
2022-10-02T05:15:12.957Z,2.43
2022-10-02T05:17:55.774Z,2.53
2022-10-02T05:20:38.491Z,2.87
2022-10-02T05:23:24.222Z,2.70
2022-10-02T05:26:14.098Z,2.23
2022-10-02T05:29:23.639Z,2.40
2022-10-02T05:32:08.091Z,2.47
2022-10-02T05:34:53.540Z,2.37
2022-10-02T05:37:41.128Z,2.30
2022-10-02T05:40:16.688Z,2.40
2022-10-02T05:42:49.356Z,2.40
2022-10-02T05:45:24.961Z,2.40
2022-10-02T05:47:56.533Z,2.90
2022-10-02T05:50:30.593Z,2.40
2022-10-02T05:53:01.197Z,2.30
2022-10-02T05:55:36.429Z,3.00
2022-10-02T05:58:08.815Z,2.40
2022-10-02T06:00:43.909Z,2.27
2022-10-02T06:03:17.565Z,2.10
2022-10-02T06:05:55.243Z,2.40
2022-10-02T06:08:31.571Z,2.30
2022-10-02T06:11:07.205Z,2.33
2022-10-02T06:13:41.379Z,3.23
2022-10-02T06:16:18.703Z,2.97
2022-10-02T06:18:52.137Z,2.83
2022-10-02T06:21:28.884Z,3.13
2022-10-02T06:24:02.369Z,2.80
2022-10-02T06:26:39.564Z,3.17
2022-10-02T06:29:18.671Z,3.37
2022-10-02T06:31:52.889Z,3.40
2022-10-02T06:34:20.789Z,3.70
2022-10-02T06:37:09.280Z,3.90
2022-10-02T06:40:01.758Z,3.20
2022-10-02T06:42:42.975Z,3.20
2022-10-02T06:45:24.011Z,3.40
2022-10-02T06:48:01.857Z,3.43
2022-10-02T06:50:42.631Z,3.40
2022-10-02T06:53:26.859Z,4.10
2022-10-02T06:56:01.288Z,4.13
2022-10-02T06:58:47.544Z,3.90
2022-10-02T07:01:23.784Z,3.60
2022-10-02T07:04:21.911Z,3.43
2022-10-02T07:07:09.491Z,3.83
2022-10-02T07:09:55.333Z,3.83
2022-10-02T07:12:46.588Z,3.73
2022-10-02T07:15:47.477Z,3.50
2022-10-02T07:18:26.120Z,3.53
2022-10-02T07:21:03.958Z,4.13
2022-10-02T07:23:45.558Z,3.73
2022-10-02T07:26:38.549Z,3.93
2022-10-02T07:29:19.376Z,3.50
2022-10-02T07:31:58.956Z,3.20
2022-10-02T07:34:42.585Z,3.33
2022-10-02T07:37:21.425Z,3.57
2022-10-02T07:40:02.601Z,3.63
2022-10-02T07:42:48.143Z,3.80
2022-10-02T07:45:28.570Z,3.25
2022-10-02T07:48:18.622Z,2.60
2022-10-02T07:51:02.235Z,2.70
2022-10-02T07:53:40.039Z,3.10
2022-10-02T07:56:11.675Z,2.15
2022-10-02T07:58:44.709Z,3.15
2022-10-02T08:01:17.699Z,2.97
2022-10-02T08:03:50.794Z,3.35
2022-10-02T08:06:19.085Z,3.85
2022-10-02T08:08:52.810Z,3.40
2022-10-02T08:11:28.819Z,3.10
2022-10-02T08:14:02.544Z,3.80
2022-10-02T08:16:37.668Z,3.42
2022-10-02T08:19:12.755Z,2.92
2022-10-02T08:21:44.605Z,3.97
2022-10-02T08:24:15.587Z,3.38
2022-10-02T08:26:48.415Z,3.13
2022-10-02T08:29:20.643Z,3.08
2022-10-02T08:31:49.249Z,2.90
2022-10-02T08:34:21.931Z,3.05
2022-10-02T08:37:16.271Z,3.08
2022-10-02T08:40:22.234Z,2.85
2022-10-02T08:43:33.405Z,3.28
2022-10-02T08:46:45.399Z,3.15
2022-10-02T08:49:39.689Z,3.03
2022-10-02T08:52:39.493Z,3.53
2022-10-02T08:55:44.315Z,3.38
2022-10-02T08:58:36.325Z,3.72
2022-10-02T09:01:18.791Z,3.05
2022-10-02T09:04:27.446Z,3.15
2022-10-02T09:07:29.289Z,3.25
2022-10-02T09:10:48.986Z,3.30
2022-10-02T09:13:46.263Z,3.20
2022-10-02T09:16:19.783Z,3.70
2022-10-02T09:18:56.318Z,3.40
2022-10-02T09:21:56.530Z,3.35
2022-10-02T09:24:59.231Z,3.45
2022-10-02T09:27:59.195Z,4.45
2022-10-02T09:30:54.503Z,3.65
2022-10-02T09:33:54.123Z,2.70
2022-10-02T09:36:40.944Z,3.28
2022-10-02T09:39:39.229Z,3.20
2022-10-02T09:42:30.688Z,3.50
2022-10-02T09:45:25.732Z,2.80
2022-10-02T09:48:34.329Z,2.60
2022-10-02T09:51:41.792Z,3.03
2022-10-02T09:54:42.021Z,2.70
2022-10-02T09:57:54.416Z,2.80
2022-10-02T10:00:39.388Z,2.42
2022-10-02T10:03:39.689Z,2.65
2022-10-02T10:06:40.126Z,3.08
2022-10-02T10:09:40.504Z,2.63
2022-10-02T10:12:28.937Z,3.85
2022-10-02T10:15:22.029Z,2.83
2022-10-02T10:18:19.315Z,3.58
2022-10-02T10:21:29.993Z,3.25
2022-10-02T10:24:14.294Z,3.65
2022-10-02T10:27:08.103Z,3.70
2022-10-02T10:30:09.713Z,3.15
2022-10-02T10:33:09.781Z,3.08
2022-10-02T10:36:31.720Z,3.70
2022-10-02T10:39:14.706Z,2.88
2022-10-02T10:42:14.951Z,2.90
2022-10-02T10:45:22.737Z,3.25
2022-10-02T10:48:19.673Z,3.65
2022-10-02T10:50:55.521Z,3.25
2022-10-02T10:53:51.788Z,2.60
2022-10-02T10:56:36.896Z,1.73
2022-10-02T10:59:30.162Z,2.42
2022-10-02T11:02:26.310Z,2.10
2022-10-02T11:05:10.974Z,2.55
2022-10-02T11:07:54.759Z,2.72
2022-10-02T11:10:35.074Z,2.65
2022-10-02T11:13:36.566Z,3.08
2022-10-02T11:16:45.280Z,2.83
2022-10-02T11:19:37.364Z,3.75
2022-10-02T11:22:21.793Z,2.92
2022-10-02T11:25:26.108Z,3.53
2022-10-02T11:28:31.479Z,3.38
2022-10-02T11:31:20.823Z,2.95
2022-10-02T11:34:24.504Z,3.10
2022-10-02T11:37:16.804Z,2.80
2022-10-02T11:40:03.620Z,3.10
2022-10-02T11:42:49.130Z,3.45
2022-10-02T11:45:37.167Z,2.47
2022-10-02T11:48:40.769Z,2.70
2022-10-02T11:51:36.579Z,2.47
2022-10-02T11:54:20.641Z,2.75
2022-10-02T11:57:06.095Z,2.80
2022-10-02T11:59:49.337Z,3.33
2022-10-02T12:02:26.123Z,7.10
2022-10-02T12:05:10.299Z,4.15
2022-10-02T12:07:44.218Z,4.15
2022-10-02T12:10:36.456Z,4.80
2022-10-02T12:13:24.615Z,7.72
2022-10-02T12:16:03.641Z,10.18
2022-10-02T12:18:45.137Z,4.53
2022-10-02T12:21:41.220Z,3.78
2022-10-02T12:24:37.389Z,3.70
2022-10-02T12:27:14.477Z,3.10
2022-10-02T12:29:55.983Z,2.15
2022-10-02T12:32:40.551Z,2.10
2022-10-02T12:35:23.684Z,2.10
2022-10-02T12:38:01.683Z,2.33
2022-10-02T12:40:36.092Z,2.33
2022-10-02T12:43:45.245Z,4.60
2022-10-02T12:46:27.517Z,3.35
2022-10-02T12:49:10.173Z,3.22
2022-10-02T12:51:46.480Z,2.75
2022-10-02T12:54:54.617Z,2.58
2022-10-02T12:57:55.910Z,2.72
2022-10-02T13:00:26.739Z,3.33
2022-10-02T13:03:11.671Z,2.42
2022-10-02T13:06:10.779Z,3.17
2022-10-02T13:08:56.103Z,2.63
2022-10-02T13:11:38.571Z,2.78
2022-10-02T13:14:20.197Z,3.40
2022-10-02T13:17:09.805Z,2.58
2022-10-02T13:19:47.948Z,3.70
2022-10-02T13:22:20.982Z,2.70
2022-10-02T13:25:00.684Z,2.10
2022-10-02T13:27:37.830Z,2.97
2022-10-02T13:30:15.186Z,2.92
2022-10-02T13:32:58.691Z,2.25
2022-10-02T13:35:38.203Z,2.45
2022-10-02T13:38:24.639Z,2.25
2022-10-02T13:41:03.612Z,2.42
2022-10-02T13:43:43.549Z,2.17
2022-10-02T13:46:24.532Z,2.40
2022-10-02T13:49:04.642Z,3.08
2022-10-02T13:51:40.043Z,3.00
2022-10-02T13:54:38.309Z,2.63
2022-10-02T13:57:16.780Z,3.83
2022-10-02T14:00:02.874Z,2.88
2022-10-02T14:02:46.488Z,2.40
2022-10-02T14:05:25.643Z,2.47
2022-10-02T14:08:11.283Z,2.25
2022-10-02T14:10:52.278Z,1.60
2022-10-02T14:13:29.684Z,2.22
2022-10-02T14:16:13.999Z,1.65
2022-10-02T14:18:59.281Z,2.28
2022-10-02T14:21:35.548Z,1.95
2022-10-02T14:24:56.796Z,2.92
2022-10-02T14:27:57.805Z,4.55
2022-10-02T14:30:34.917Z,2.70
2022-10-02T14:33:14.761Z,2.10
2022-10-02T14:35:55.094Z,2.38
2022-10-02T14:38:45.658Z,2.30
2022-10-02T14:41:30.097Z,2.72
2022-10-02T14:44:29.168Z,1.30
2022-10-02T14:47:17.704Z,2.83
2022-10-02T14:50:03.744Z,5.90
2022-10-02T14:52:47.463Z,1.50
2022-10-02T14:55:44.340Z,1.60
2022-10-02T14:58:30.174Z,1.73
2022-10-02T15:01:20.098Z,2.63
2022-10-02T15:04:23.306Z,1.98
2022-10-02T15:07:04.002Z,1.95
2022-10-02T15:09:39.789Z,1.65
2022-10-02T15:12:19.397Z,1.55
2022-10-02T15:15:09.809Z,1.65
2022-10-02T15:17:55.130Z,1.30
2022-10-02T15:20:48.225Z,1.40
2022-10-02T15:23:40.378Z,1.50
2022-10-02T15:26:35.470Z,1.02
2022-10-02T15:29:16.941Z,1.50
2022-10-02T15:32:23.846Z,1.70
2022-10-02T15:35:02.160Z,1.48
2022-10-02T15:37:43.395Z,1.35
2022-10-02T15:40:22.943Z,1.90
2022-10-02T15:42:58.610Z,2.20
2022-10-02T15:45:49.345Z,1.85
2022-10-02T15:48:31.879Z,1.80
2022-10-02T15:51:09.191Z,1.70
2022-10-02T15:53:58.140Z,3.33
2022-10-02T15:56:40.325Z,4.97
2022-10-02T15:59:22.586Z,4.90
2022-10-02T16:02:01.347Z,7.63
2022-10-02T16:04:35.957Z,2.30
2022-10-02T16:07:46.744Z,1.80
2022-10-02T16:10:21.510Z,3.80
2022-10-02T16:13:07.415Z,2.50
2022-10-02T16:15:48.525Z,3.00
2022-10-02T16:18:36.004Z,2.50
2022-10-02T16:21:25.806Z,4.80
2022-10-02T16:24:15.245Z,3.13
2022-10-02T16:27:13.871Z,2.47
2022-10-02T16:29:48.546Z,2.10
2022-10-02T16:32:31.048Z,2.50
2022-10-02T16:35:17.708Z,1.98
2022-10-02T16:37:47.369Z,1.80
2022-10-02T16:40:26.928Z,1.70
2022-10-02T16:43:26.316Z,1.77
2022-10-02T16:46:04.864Z,1.90
2022-10-02T16:48:42.524Z,1.80
2022-10-02T16:51:30.957Z,2.00
2022-10-02T16:54:10.419Z,1.80
2022-10-02T16:56:50.875Z,2.00
2022-10-02T16:59:23.142Z,2.30
2022-10-02T17:02:16.397Z,2.20
2022-10-02T17:04:53.505Z,2.30
2022-10-02T17:07:38.301Z,2.70
2022-10-02T17:10:19.205Z,1.93
2022-10-02T17:12:56.490Z,1.83
2022-10-02T17:15:29.472Z,2.23
2022-10-02T17:18:13.882Z,1.93
2022-10-02T17:20:47.470Z,1.87
2022-10-02T17:23:21.056Z,2.03
2022-10-02T17:25:58.396Z,2.00
2022-10-02T17:28:34.776Z,1.87
2022-10-02T17:31:23.800Z,1.80
2022-10-02T17:33:55.583Z,1.70
2022-10-02T17:36:33.240Z,2.27
2022-10-02T17:39:29.667Z,2.23
2022-10-02T17:42:06.606Z,2.07
2022-10-02T17:44:46.072Z,2.10
2022-10-02T17:47:30.133Z,2.10
2022-10-02T17:50:07.894Z,2.00
2022-10-02T17:53:02.025Z,2.60
2022-10-02T17:56:03.812Z,2.90
2022-10-02T17:58:39.377Z,2.10
2022-10-02T18:01:18.716Z,2.10
2022-10-02T18:04:02.289Z,2.47
2022-10-02T18:06:41.985Z,2.20
2022-10-02T18:09:33.266Z,2.50
2022-10-02T18:12:34.843Z,2.23
2022-10-02T18:15:22.113Z,2.47
2022-10-02T18:18:02.110Z,2.30
2022-10-02T18:20:35.324Z,1.97
2022-10-02T18:23:16.370Z,2.50
2022-10-02T18:25:56.259Z,2.13
2022-10-02T18:28:45.372Z,2.30
2022-10-02T18:31:55.146Z,1.90
2022-10-02T18:34:43.629Z,2.73
2022-10-02T18:37:26.589Z,2.20
2022-10-02T18:40:17.071Z,2.40
2022-10-02T18:42:54.188Z,1.70
2022-10-02T18:45:35.413Z,1.80
2022-10-02T18:48:26.793Z,2.20
2022-10-02T18:51:09.395Z,2.30
2022-10-02T18:53:58.250Z,2.67
2022-10-02T18:56:55.113Z,2.10
2022-10-02T18:59:34.281Z,2.47
2022-10-02T19:02:14.417Z,2.40
2022-10-02T19:05:03.046Z,1.97
2022-10-02T19:07:41.777Z,2.67
2022-10-02T19:10:40.846Z,2.23
2022-10-02T19:13:22.343Z,2.20
2022-10-02T19:15:52.430Z,2.30
2022-10-02T19:18:22.519Z,2.40
2022-10-02T19:20:54.623Z,2.60
2022-10-02T19:23:29.120Z,2.23
2022-10-02T19:25:59.450Z,2.00
2022-10-02T19:28:30.391Z,2.10
2022-10-02T19:31:02.091Z,2.70
2022-10-02T19:33:36.473Z,2.67
2022-10-02T19:36:06.519Z,2.20
2022-10-02T19:38:38.978Z,2.40
2022-10-02T19:41:10.533Z,2.30
2022-10-02T19:43:48.628Z,2.37
2022-10-02T19:46:19.906Z,2.90
2022-10-02T19:48:55.092Z,2.43
2022-10-02T19:51:22.890Z,2.40
2022-10-02T19:53:55.956Z,2.20
2022-10-02T19:56:28.343Z,2.63
2022-10-02T19:59:02.119Z,2.50
2022-10-02T20:01:35.602Z,2.73
2022-10-02T20:04:06.777Z,2.80
2022-10-02T20:06:39.933Z,2.47
2022-10-02T20:09:17.180Z,2.40
2022-10-02T20:11:47.690Z,2.40
2022-10-02T20:14:20.353Z,2.83
2022-10-02T20:17:05.742Z,2.93
2022-10-02T20:19:39.195Z,2.93
2022-10-02T20:22:16.320Z,2.50
2022-10-02T20:24:51.616Z,2.87
2022-10-02T20:27:24.338Z,2.50
2022-10-02T20:29:57.577Z,2.60
2022-10-02T20:32:30.846Z,2.70
2022-10-02T20:35:03.684Z,2.80
2022-10-02T20:37:35.014Z,2.60
2022-10-02T20:40:11.602Z,2.77
2022-10-02T20:42:47.464Z,3.60
2022-10-02T20:45:16.198Z,2.70
2022-10-02T20:48:15.312Z,2.40
2022-10-02T20:50:49.808Z,2.70
2022-10-02T20:54:04.984Z,2.50
2022-10-02T20:57:13.854Z,2.80
2022-10-02T21:00:14.940Z,2.33
2022-10-02T21:03:14.473Z,2.67
2022-10-02T21:06:05.016Z,2.87
2022-10-02T21:08:48.248Z,2.63
2022-10-02T21:11:29.389Z,3.07
2022-10-02T21:14:29.460Z,2.73
2022-10-02T21:17:15.381Z,3.10
2022-10-02T21:20:33.385Z,3.00
2022-10-02T21:23:49.593Z,2.77
2022-10-02T21:26:57.482Z,2.57
2022-10-02T21:29:39.400Z,2.77
2022-10-02T21:32:23.066Z,3.20
2022-10-02T21:35:05.958Z,3.00
2022-10-02T21:37:46.733Z,3.03
2022-10-02T21:40:45.705Z,2.90
2022-10-02T21:43:55.798Z,2.73
2022-10-02T21:47:00.270Z,2.90
2022-10-02T21:50:04.428Z,3.03
2022-10-02T21:53:16.921Z,3.90
2022-10-02T21:56:24.611Z,3.20
2022-10-02T21:59:38.254Z,4.27
2022-10-02T22:02:38.836Z,3.73
2022-10-02T22:05:43.310Z,3.33
2022-10-02T22:08:21.040Z,3.40
2022-10-02T22:10:57.723Z,3.47
2022-10-02T22:13:29.330Z,3.87
2022-10-02T22:16:10.727Z,3.47
2022-10-02T22:18:48.426Z,3.27
2022-10-02T22:21:32.122Z,3.23
2022-10-02T22:24:23.589Z,3.30
2022-10-02T22:27:10.781Z,3.40
2022-10-02T22:29:45.784Z,3.10
2022-10-02T22:33:08.010Z,3.30
2022-10-02T22:36:00.483Z,3.80
2022-10-02T22:38:34.245Z,3.53
2022-10-02T22:41:07.699Z,3.00
2022-10-02T22:43:44.806Z,3.00
2022-10-02T22:46:23.863Z,3.20
2022-10-02T22:48:58.319Z,3.33
2022-10-02T22:51:34.563Z,3.57
2022-10-02T22:54:17.248Z,3.10
2022-10-02T22:56:52.534Z,2.97
2022-10-02T22:59:25.421Z,3.23
2022-10-02T23:02:00.147Z,2.90
2022-10-02T23:04:36.684Z,3.20
2022-10-02T23:07:16.147Z,3.47
2022-10-02T23:09:51.505Z,3.43
2022-10-02T23:12:27.825Z,2.73
2022-10-02T23:15:04.361Z,2.97
2022-10-02T23:17:38.402Z,3.13
2022-10-02T23:20:15.759Z,2.80
2022-10-02T23:22:52.656Z,2.93
2022-10-02T23:25:29.138Z,3.53
2022-10-02T23:28:01.038Z,3.50
2022-10-02T23:30:31.766Z,3.27
2022-10-02T23:33:03.777Z,3.00
2022-10-02T23:35:38.222Z,3.00
2022-10-02T23:38:15.955Z,3.17
2022-10-02T23:41:18.831Z,3.13
2022-10-02T23:43:52.372Z,3.07
2022-10-02T23:46:27.262Z,3.43
2022-10-02T23:48:56.597Z,3.43
2022-10-02T23:51:31.974Z,2.93
2022-10-02T23:54:33.754Z,3.33
2022-10-02T23:57:26.110Z,3.60
